Time;durP1;ratioP1;P1;durP2;ratioP2;P2;SDS_P1;SDS_P2;PMS_P1;PMS_P2;Temp;Humidity;BMP_temperature;BMP_pressure;BME280_temperature;BME280_humidity;BME280_pressure;Samples;Min_cycle;Max_cycle;Signal;HPM_P1;HPM_P2
2023/03/09 00:00:56;;;;;;;14.48;7.30;;;2.00;99.90;;;;;;5114762;28;20063;-88
2023/03/09 00:03:42;;;;;;;12.90;6.80;;;2.00;99.90;;;;;;5114701;28;20055;-86
2023/03/09 00:06:28;;;;;;;18.77;7.70;;;2.00;99.90;;;;;;5112062;28;20059;-84
2023/03/09 00:09:15;;;;;;;11.55;6.53;;;2.00;99.90;;;;;;5111916;28;20105;-85
2023/03/09 00:12:03;;;;;;;18.85;8.07;;;1.90;99.90;;;;;;5117151;28;20130;-84
2023/03/09 00:14:53;;;;;;;13.70;7.32;;;1.90;99.90;;;;;;5116088;28;20047;-84
2023/03/09 00:17:39;;;;;;;16.70;7.28;;;1.80;99.90;;;;;;5119782;28;20051;-88
2023/03/09 00:20:25;;;;;;;15.00;6.18;;;1.80;99.90;;;;;;5114480;28;20063;-85
2023/03/09 00:23:12;;;;;;;15.05;6.70;;;1.80;99.90;;;;;;5111577;28;20051;-86
2023/03/09 00:26:06;;;;;;;16.75;7.70;;;1.70;99.90;;;;;;5115973;28;20415;-85
2023/03/09 00:28:52;;;;;;;16.42;7.95;;;1.70;99.90;;;;;;5110979;28;20113;-85
2023/03/09 00:31:38;;;;;;;15.95;8.23;;;1.60;99.90;;;;;;5108458;28;20142;-87
2023/03/09 00:34:24;;;;;;;14.77;7.25;;;1.60;99.90;;;;;;5111489;28;20047;-89
2023/03/09 00:37:10;;;;;;;15.35;7.63;;;1.60;99.90;;;;;;5113363;28;20048;-88
2023/03/09 00:39:56;;;;;;;14.77;7.60;;;1.50;99.90;;;;;;5112436;28;20501;-86
2023/03/09 00:42:43;;;;;;;15.15;7.43;;;1.50;99.90;;;;;;5111296;28;20048;-85
2023/03/09 00:45:29;;;;;;;16.75;7.35;;;1.40;99.90;;;;;;5112875;28;20039;-89
2023/03/09 00:48:15;;;;;;;15.18;7.85;;;1.40;99.90;;;;;;5111842;28;20070;-87
2023/03/09 00:51:01;;;;;;;15.48;7.68;;;1.30;99.90;;;;;;5110761;28;20561;-86
2023/03/09 00:53:47;;;;;;;17.38;7.90;;;1.30;99.90;;;;;;5095385;28;20483;-88
2023/03/09 00:56:34;;;;;;;17.92;8.80;;;1.30;99.90;;;;;;5114015;28;20047;-89
2023/03/09 00:59:20;;;;;;;19.92;9.23;;;1.30;99.90;;;;;;5114547;28;20051;-86
2023/03/09 01:02:06;;;;;;;18.45;9.32;;;1.20;99.90;;;;;;5112164;28;20053;-88
2023/03/09 01:04:52;;;;;;;14.05;7.32;;;1.20;99.90;;;;;;5112356;28;20044;-86
2023/03/09 01:07:38;;;;;;;16.30;7.47;;;1.10;99.90;;;;;;5080947;28;20517;-86
2023/03/09 01:10:24;;;;;;;19.90;9.80;;;1.10;99.90;;;;;;5098082;28;20162;-85
2023/03/09 01:13:10;;;;;;;25.58;9.23;;;1.00;99.90;;;;;;5116531;28;20488;-85
2023/03/09 01:15:56;;;;;;;16.48;7.82;;;1.00;99.90;;;;;;5117148;28;20071;-87
2023/03/09 01:18:42;;;;;;;18.85;8.88;;;0.90;99.90;;;;;;5090243;28;20070;-89
2023/03/09 01:21:30;;;;;;;22.63;10.13;;;0.90;99.90;;;;;;5123514;28;20384;-90
2023/03/09 01:24:17;;;;;;;20.50;9.52;;;0.90;99.90;;;;;;5090900;28;20057;-87
2023/03/09 01:27:03;;;;;;;24.23;9.45;;;0.90;99.90;;;;;;5119071;28;20051;-88
2023/03/09 01:29:49;;;;;;;18.77;8.48;;;0.80;99.90;;;;;;5118133;28;20062;-85
2023/03/09 01:32:35;;;;;;;21.05;9.73;;;0.70;99.90;;;;;;5117363;28;20047;-85
2023/03/09 01:35:21;;;;;;;19.27;8.90;;;0.70;99.90;;;;;;5125015;28;20040;-89
2023/03/09 01:38:08;;;;;;;22.52;9.18;;;0.60;99.90;;;;;;5125749;28;20047;-87
2023/03/09 01:40:54;;;;;;;19.83;9.13;;;0.60;99.90;;;;;;5123809;28;20484;-90
2023/03/09 01:43:41;;;;;;;21.17;10.02;;;0.50;99.90;;;;;;5113114;28;20054;-89
2023/03/09 01:46:36;;;;;;;21.23;9.85;;;0.50;99.90;;;;;;5105333;28;20138;-90
2023/03/09 01:49:41;;;;;;;26.27;11.38;;;0.40;99.90;;;;;;5119307;28;20054;-88
2023/03/09 01:52:33;;;;;;;21.13;10.95;;;0.40;99.90;;;;;;5122484;28;20104;-90
2023/03/09 01:55:24;;;;;;;19.30;9.38;;;0.40;99.90;;;;;;5100971;28;20055;-89
2023/03/09 01:58:19;;;;;;;22.73;10.60;;;0.30;99.90;;;;;;5101606;28;20063;-89
2023/03/09 02:01:06;;;;;;;;;;;0.30;99.90;;;;;;5097278;28;20075;-90
2023/03/09 02:03:58;;;;;;;23.17;11.50;;;0.30;99.90;;;;;;5124943;28;19970;-89
2023/03/09 02:06:45;;;;;;;25.08;12.52;;;0.20;99.90;;;;;;5121311;28;20058;-90
2023/03/09 02:09:39;;;;;;;22.48;10.05;;;0.30;99.90;;;;;;5102556;28;20044;-88
2023/03/09 02:12:27;;;;;;;23.65;10.80;;;0.20;99.90;;;;;;5100948;28;20507;-89
2023/03/09 02:15:13;;;;;;;28.25;10.90;;;0.10;99.90;;;;;;5101177;28;20095;-89
2023/03/09 02:17:59;;;;;;;24.15;11.95;;;0.20;99.90;;;;;;5100495;28;20059;-89
2023/03/09 02:20:57;;;;;;;27.35;11.27;;;0.20;99.90;;;;;;5120214;28;20465;-88
2023/03/09 02:24:05;;;;;;;26.85;12.48;;;0.20;99.90;;;;;;5099733;28;20047;-88
2023/03/09 02:27:01;;;;;;;22.65;11.23;;;0.30;99.90;;;;;;5120859;28;20099;-89
2023/03/09 02:29:48;;;;;;;25.88;12.25;;;0.30;99.90;;;;;;5125105;28;20047;-90
2023/03/09 02:32:34;;;;;;;28.35;12.38;;;0.30;99.90;;;;;;5124831;28;20080;-88
2023/03/09 02:35:20;;;;;;;28.10;12.65;;;0.30;99.90;;;;;;5122746;28;20661;-88
2023/03/09 02:38:13;;;;;;;25.67;12.15;;;0.30;99.90;;;;;;5124064;28;20508;-88
2023/03/09 02:41:01;;;;;;;25.90;12.25;;;0.30;99.90;;;;;;5106656;28;20055;-88
2023/03/09 02:43:52;;;;;;;27.25;12.38;;;0.40;99.90;;;;;;5125566;28;20044;-89
2023/03/09 02:46:38;;;;;;;25.50;12.25;;;0.40;99.90;;;;;;5106245;28;20059;-88
2023/03/09 02:49:24;;;;;;;22.83;10.98;;;0.40;99.90;;;;;;5123814;28;20051;-89
2023/03/09 02:52:11;;;;;;;24.73;12.02;;;0.40;99.90;;;;;;5101313;28;20043;-89
2023/03/09 02:54:57;;;;;;;26.60;12.13;;;0.40;99.90;;;;;;5120078;28;20500;-88
2023/03/09 02:57:43;;;;;;;25.70;12.13;;;0.40;99.90;;;;;;5111475;28;20051;-85
2023/03/09 03:00:29;;;;;;;25.90;12.15;;;0.40;99.90;;;;;;5130076;28;20050;-86
2023/03/09 03:03:19;;;;;;;26.05;11.80;;;0.50;99.90;;;;;;5133695;28;20499;-86
2023/03/09 03:06:06;;;;;;;31.55;14.85;;;0.50;99.90;;;;;;5130615;28;20126;-88
2023/03/09 03:08:52;;;;;;;28.00;13.02;;;0.50;99.90;;;;;;5130597;28;20089;-88
2023/03/09 03:11:38;;;;;;;31.42;14.02;;;0.60;99.90;;;;;;5124636;28;20079;-89
2023/03/09 03:14:24;;;;;;;26.13;11.52;;;0.60;99.90;;;;;;5119514;28;20111;-89
2023/03/09 03:17:10;;;;;;;27.10;13.00;;;0.70;99.90;;;;;;5105314;28;20054;-90
2023/03/09 03:19:57;;;;;;;31.85;14.13;;;0.70;99.90;;;;;;5088822;28;20048;-89
2023/03/09 03:22:43;;;;;;;27.42;13.05;;;0.70;99.90;;;;;;5102630;28;20062;-88
2023/03/09 03:25:29;;;;;;;29.88;13.55;;;0.70;99.90;;;;;;5116658;28;20056;-87
2023/03/09 03:28:15;;;;;;;30.27;13.23;;;0.80;99.90;;;;;;5118582;28;20048;-86
2023/03/09 03:31:03;;;;;;;28.35;13.48;;;0.80;99.90;;;;;;5107867;28;20047;-87
2023/03/09 03:33:50;;;;;;;29.23;13.82;;;0.80;99.90;;;;;;5105928;28;20055;-89
2023/03/09 03:36:36;;;;;;;33.28;14.57;;;0.80;99.90;;;;;;5122637;28;20055;-89
2023/03/09 03:39:22;;;;;;;31.05;13.95;;;0.80;99.90;;;;;;5115523;28;20059;-90
2023/03/09 03:42:08;;;;;;;32.85;15.07;;;0.80;99.90;;;;;;5100520;28;20143;-88
2023/03/09 03:44:54;;;;;;;37.00;15.77;;;0.90;99.90;;;;;;5102773;28;20105;-87
2023/03/09 03:47:40;;;;;;;32.22;15.88;;;0.90;99.90;;;;;;5124541;28;20044;-87
2023/03/09 03:50:26;;;;;;;35.60;16.55;;;1.00;99.90;;;;;;5124875;28;20107;-87
2023/03/09 03:53:12;;;;;;;36.17;16.55;;;1.00;99.90;;;;;;5122042;28;20039;-85
2023/03/09 03:55:58;;;;;;;34.58;16.60;;;1.00;99.90;;;;;;5106993;28;20044;-88
2023/03/09 03:58:44;;;;;;;34.08;15.68;;;1.00;99.90;;;;;;5105407;28;20044;-88
2023/03/09 04:01:30;;;;;;;32.67;16.05;;;1.00;99.90;;;;;;5098916;28;20136;-87
2023/03/09 04:04:16;;;;;;;38.08;16.30;;;0.90;99.90;;;;;;5101651;28;20127;-87
2023/03/09 04:07:02;;;;;;;34.25;16.45;;;0.90;99.90;;;;;;5099127;28;20047;-88
2023/03/09 04:09:48;;;;;;;34.13;16.25;;;0.90;99.90;;;;;;5099358;28;20066;-88
2023/03/09 04:12:34;;;;;;;35.42;14.85;;;0.80;99.90;;;;;;5116174;28;20133;-87
2023/03/09 04:15:21;;;;;;;33.05;15.70;;;0.80;99.90;;;;;;5085886;28;20090;-88
2023/03/09 04:18:07;;;;;;;36.25;15.85;;;0.70;99.90;;;;;;5104204;28;20046;-87
2023/03/09 04:20:53;;;;;;;35.45;16.17;;;0.70;99.90;;;;;;5114084;28;20502;-87
2023/03/09 04:23:39;;;;;;;37.80;17.23;;;0.60;99.90;;;;;;5112923;28;20051;-86
2023/03/09 04:26:25;;;;;;;37.65;18.17;;;0.60;99.90;;;;;;5111922;28;20044;-87
2023/03/09 04:29:12;;;;;;;37.50;16.52;;;0.60;99.90;;;;;;5083150;28;20138;-87
2023/03/09 04:31:58;;;;;;;39.45;17.92;;;0.60;99.90;;;;;;5094847;28;20408;-88
2023/03/09 04:34:44;;;;;;;37.05;17.00;;;0.60;99.90;;;;;;5112364;28;20047;-85
2023/03/09 04:37:30;;;;;;;39.15;17.48;;;0.60;99.90;;;;;;5115258;28;20070;-89
2023/03/09 04:40:16;;;;;;;34.60;15.65;;;0.50;99.90;;;;;;5115575;28;20047;-85
2023/03/09 04:43:03;;;;;;;38.45;17.08;;;0.50;99.90;;;;;;5115747;28;20044;-87
2023/03/09 04:45:49;;;;;;;36.15;17.25;;;0.50;99.90;;;;;;5113196;28;20095;-87
2023/03/09 04:48:35;;;;;;;34.17;15.43;;;0.60;99.90;;;;;;5085268;28;20059;-87
2023/03/09 04:51:21;;;;;;;32.70;16.30;;;0.60;99.90;;;;;;5117468;28;20053;-88
2023/03/09 04:54:07;;;;;;;31.40;15.63;;;0.60;99.90;;;;;;5115658;28;20048;-88
2023/03/09 04:56:53;;;;;;;31.55;14.82;;;0.50;99.90;;;;;;5114887;28;20043;-87
2023/03/09 04:59:39;;;;;;;28.73;14.10;;;0.60;99.90;;;;;;5098659;28;20052;-88
2023/03/09 05:02:28;;;;;;;31.52;14.38;;;0.60;99.90;;;;;;5123618;28;20110;-85
2023/03/09 05:05:16;;;;;;;32.53;13.63;;;0.60;99.90;;;;;;5116306;28;20047;-88
2023/03/09 05:08:02;;;;;;;50.35;16.17;;;0.60;99.90;;;;;;5115391;28;20100;-85
2023/03/09 05:10:48;;;;;;;32.60;15.38;;;0.60;99.90;;;;;;5116436;28;20104;-88
2023/03/09 05:13:34;;;;;;;33.13;13.82;;;0.60;99.90;;;;;;5114561;28;20854;-86
2023/03/09 05:16:20;;;;;;;30.95;13.82;;;0.60;99.90;;;;;;5116106;28;20043;-88
2023/03/09 05:19:08;;;;;;;30.95;14.10;;;0.60;99.90;;;;;;5114508;28;20134;-86
2023/03/09 05:21:54;;;;;;;29.77;13.15;;;0.60;99.90;;;;;;5120646;28;20044;-88
2023/03/09 05:24:41;;;;;;;32.50;13.35;;;0.70;99.90;;;;;;5103499;28;20048;-87
2023/03/09 05:27:27;;;;;;;28.27;12.95;;;0.70;99.90;;;;;;5114941;28;20063;-88
2023/03/09 05:30:13;;;;;;;28.98;12.00;;;0.70;99.90;;;;;;5114557;28;20051;-88
2023/03/09 05:32:59;;;;;;;27.38;12.85;;;0.70;99.90;;;;;;5115353;28;20134;-86
2023/03/09 05:35:45;;;;;;;25.63;12.57;;;0.70;99.90;;;;;;5118421;28;20592;-88
2023/03/09 05:38:31;;;;;;;24.05;10.98;;;0.70;99.90;;;;;;5097236;28;20083;-88
2023/03/09 05:41:18;;;;;;;24.95;11.25;;;0.70;99.90;;;;;;5117266;28;20043;-88
2023/03/09 05:44:04;;;;;;;25.70;12.38;;;0.70;99.90;;;;;;5087643;28;20483;-88
2023/03/09 05:46:50;;;;;;;24.52;11.63;;;0.70;99.90;;;;;;5103185;28;20117;-88
2023/03/09 05:49:36;;;;;;;24.80;12.13;;;0.70;99.90;;;;;;5103433;28;20055;-87
2023/03/09 05:52:22;;;;;;;27.95;12.18;;;0.70;99.90;;;;;;5116768;28;20050;-88
2023/03/09 05:55:09;;;;;;;26.77;12.70;;;0.70;99.90;;;;;;5097995;28;20058;-88
2023/03/09 05:57:55;;;;;;;26.95;12.25;;;0.70;99.90;;;;;;5115548;28;20499;-87
2023/03/09 06:00:41;;;;;;;27.27;11.27;;;0.70;99.90;;;;;;5118792;28;20518;-87
2023/03/09 06:03:27;;;;;;;24.92;11.80;;;0.70;99.90;;;;;;5110476;28;20112;-87
2023/03/09 06:06:13;;;;;;;23.88;12.77;;;0.70;99.90;;;;;;5107573;28;20075;-88
2023/03/09 06:09:00;;;;;;;25.40;11.07;;;0.60;99.90;;;;;;5118513;28;20039;-89
2023/03/09 06:11:46;;;;;;;24.02;12.25;;;0.60;99.90;;;;;;5119513;28;20585;-87
2023/03/09 06:14:32;;;;;;;32.17;14.73;;;0.60;99.90;;;;;;5114992;28;20087;-88
2023/03/09 06:17:19;;;;;;;26.05;11.88;;;0.70;99.90;;;;;;5112934;28;20075;-88
2023/03/09 06:20:06;;;;;;;26.92;11.90;;;0.60;99.90;;;;;;5114394;28;20071;-85
2023/03/09 06:22:52;;;;;;;22.75;11.75;;;0.60;99.90;;;;;;5106126;28;20051;-87
2023/03/09 06:25:39;;;;;;;25.38;11.50;;;0.50;99.90;;;;;;5118707;28;20051;-88
2023/03/09 06:28:25;;;;;;;23.77;11.63;;;0.40;99.90;;;;;;5081166;28;20095;-90
2023/03/09 06:31:13;;;;;;;25.25;12.30;;;0.40;99.90;;;;;;5112571;28;20079;-89
2023/03/09 06:33:59;;;;;;;25.88;11.27;;;0.40;99.90;;;;;;5113381;28;20380;-86
2023/03/09 06:36:45;;;;;;;23.48;11.48;;;0.40;99.90;;;;;;5095754;28;20063;-88
2023/03/09 06:39:31;;;;;;;24.75;11.43;;;0.30;99.90;;;;;;5101560;28;20052;-88
2023/03/09 06:42:17;;;;;;;26.65;12.02;;;0.30;99.90;;;;;;5081320;28;20047;-89
2023/03/09 06:45:04;;;;;;;27.98;12.13;;;0.30;99.90;;;;;;5113557;28;20047;-88
2023/03/09 06:47:54;;;;;;;26.33;11.75;;;0.30;99.90;;;;;;5112961;28;20139;-88
2023/03/09 06:50:40;;;;;;;25.45;12.30;;;0.30;99.90;;;;;;5117179;28;20069;-87
2023/03/09 06:53:26;;;;;;;29.63;13.45;;;0.30;99.90;;;;;;5112620;28;20120;-88
2023/03/09 06:56:12;;;;;;;27.05;12.20;;;0.30;99.90;;;;;;5094840;28;20054;-88
2023/03/09 06:58:58;;;;;;;24.48;11.52;;;0.30;99.90;;;;;;5114292;28;20396;-88
2023/03/09 07:01:45;;;;;;;24.70;12.52;;;0.30;99.90;;;;;;5097341;28;20488;-86
2023/03/09 07:04:31;;;;;;;24.83;12.27;;;0.40;99.90;;;;;;5097060;28;20105;-86
2023/03/09 07:07:18;;;;;;;25.98;11.57;;;0.50;99.90;;;;;;5111354;28;20047;-87
2023/03/09 07:10:05;;;;;;;26.60;13.23;;;0.60;99.90;;;;;;5116608;28;20054;-88
2023/03/09 07:12:51;;;;;;;26.42;11.80;;;0.70;99.90;;;;;;5098179;28;20442;-88
2023/03/09 07:15:37;;;;;;;28.40;12.48;;;0.80;99.90;;;;;;5114148;28;20062;-89
2023/03/09 07:18:23;;;;;;;23.40;12.27;;;1.00;99.90;;;;;;5119628;28;20048;-87
2023/03/09 07:21:10;;;;;;;24.63;12.43;;;1.20;99.90;;;;;;5100784;28;20051;-85
2023/03/09 07:23:56;;;;;;;25.25;11.88;;;1.40;99.90;;;;;;5116927;28;20079;-89
2023/03/09 07:26:43;;;;;;;27.52;12.10;;;1.60;99.90;;;;;;5119998;28;20058;-90
2023/03/09 07:29:29;;;;;;;20.42;10.18;;;1.70;99.90;;;;;;5106012;28;20047;-90
2023/03/09 07:32:15;;;;;;;23.67;12.48;;;1.80;99.90;;;;;;5124096;28;20089;-90
2023/03/09 07:35:01;;;;;;;24.40;12.55;;;2.00;99.90;;;;;;5121868;28;20048;-85
2023/03/09 07:37:47;;;;;;;22.30;11.13;;;2.10;99.90;;;;;;5113287;28;20044;-85
2023/03/09 07:40:33;;;;;;;22.50;11.35;;;2.40;99.90;;;;;;5121091;28;20130;-85
2023/03/09 07:43:19;;;;;;;22.85;11.35;;;2.50;99.90;;;;;;5121525;28;20130;-89
2023/03/09 07:46:07;;;;;;;22.73;10.35;;;2.70;99.90;;;;;;5121172;28;20047;-90
2023/03/09 07:48:53;;;;;;;20.98;11.13;;;2.90;99.90;;;;;;5109120;28;20059;-88
2023/03/09 07:51:40;;;;;;;19.48;9.57;;;3.00;99.90;;;;;;5120743;28;20044;-86
2023/03/09 07:54:26;;;;;;;21.30;10.10;;;3.10;99.90;;;;;;5121319;28;20058;-90
2023/03/09 07:57:13;;;;;;;19.30;10.38;;;3.20;99.90;;;;;;5116870;28;20789;-89
2023/03/09 07:59:59;;;;;;;19.02;9.85;;;3.30;99.90;;;;;;5113250;28;20052;-87
2023/03/09 08:02:46;;;;;;;17.63;9.23;;;3.30;99.90;;;;;;5112013;28;20526;-89
2023/03/09 08:05:32;;;;;;;18.27;10.18;;;3.40;99.90;;;;;;5113892;28;20047;-87
2023/03/09 08:08:19;;;;;;;19.50;9.93;;;3.40;99.90;;;;;;5113728;28;20072;-85
2023/03/09 08:11:05;;;;;;;20.90;10.15;;;3.50;99.90;;;;;;5115219;28;20514;-87
2023/03/09 08:13:52;;;;;;;20.42;10.50;;;3.50;99.90;;;;;;5117240;28;20130;-90
2023/03/09 08:16:38;;;;;;;17.33;9.32;;;3.50;99.90;;;;;;5118122;28;20055;-88
2023/03/09 08:19:24;;;;;;;18.50;9.70;;;3.50;99.90;;;;;;5118906;28;20047;-89
2023/03/09 08:22:10;;;;;;;18.52;9.63;;;3.50;99.90;;;;;;5088264;28;20052;-90
2023/03/09 08:24:57;;;;;;;17.65;9.48;;;3.50;99.90;;;;;;5114343;28;20082;-91
2023/03/09 08:27:46;;;;;;;17.67;9.90;;;3.60;99.90;;;;;;5126040;28;20052;-88
2023/03/09 08:30:33;;;;;;;14.88;9.05;;;3.70;99.90;;;;;;5117454;28;20048;-89
2023/03/09 08:33:19;;;;;;;16.52;8.70;;;3.80;99.90;;;;;;5096369;28;20044;-88
2023/03/09 08:36:17;;;;;;;16.48;9.27;;;3.90;99.90;;;;;;5116622;28;20058;-86
2023/03/09 08:39:03;;;;;;;18.58;8.65;;;3.90;99.90;;;;;;5095980;28;20519;-86
2023/03/09 08:41:49;;;;;;;17.52;9.73;;;3.90;99.90;;;;;;5113663;28;20048;-90
2023/03/09 08:44:35;;;;;;;16.38;8.73;;;3.90;99.90;;;;;;5081827;28;20175;-90
2023/03/09 08:47:21;;;;;;;15.10;8.57;;;4.00;99.90;;;;;;5094493;28;20449;-86
2023/03/09 08:50:09;;;;;;;14.60;8.27;;;4.00;99.90;;;;;;5093040;28;20052;-89
2023/03/09 08:52:55;;;;;;;18.20;9.32;;;4.10;99.90;;;;;;5079308;28;20051;-88
2023/03/09 08:55:41;;;;;;;16.83;8.57;;;4.20;99.90;;;;;;5111085;28;20052;-84
2023/03/09 08:58:27;;;;;;;14.85;8.23;;;4.20;99.90;;;;;;5093379;28;20748;-86
2023/03/09 09:01:13;;;;;;;13.95;8.32;;;4.20;99.90;;;;;;5112538;28;20544;-90
2023/03/09 09:03:59;;;;;;;13.75;7.55;;;4.40;99.90;;;;;;5112761;28;20107;-88
2023/03/09 09:06:46;;;;;;;13.77;7.63;;;4.50;99.90;;;;;;5114505;28;20496;-91
2023/03/09 09:09:32;;;;;;;14.52;7.32;;;4.60;99.90;;;;;;5111577;28;20048;-86
2023/03/09 09:12:18;;;;;;;12.98;7.25;;;4.70;99.90;;;;;;5117024;28;20111;-92
2023/03/09 09:15:09;;;;;;;16.45;7.57;;;4.80;99.90;;;;;;5100582;28;20052;-90
2023/03/09 09:17:55;;;;;;;14.38;6.97;;;5.10;99.90;;;;;;5095741;28;20047;-90
2023/03/09 09:20:41;;;;;;;12.27;7.20;;;5.40;99.90;;;;;;5112018;28;20055;-90
2023/03/09 09:23:27;;;;;;;12.80;6.65;;;5.50;99.90;;;;;;5120972;28;20410;-90
2023/03/09 09:26:15;;;;;;;10.75;5.95;;;5.60;99.90;;;;;;5080475;28;20519;-87
2023/03/09 09:29:01;;;;;;;11.02;6.45;;;5.70;99.90;;;;;;5113409;28;20055;-90
2023/03/09 09:31:48;;;;;;;12.98;6.45;;;5.70;99.90;;;;;;5094064;28;20048;-90
2023/03/09 09:34:34;;;;;;;11.82;6.75;;;5.90;99.90;;;;;;5117410;28;20475;-89
2023/03/09 09:37:21;;;;;;;10.80;5.75;;;6.00;99.90;;;;;;5115824;28;20071;-90
2023/03/09 09:40:12;;;;;;;10.88;6.93;;;6.10;99.90;;;;;;5100004;28;20039;-89
2023/03/09 09:42:58;;;;;;;9.88;5.75;;;6.10;99.90;;;;;;5083599;28;20132;-90
2023/03/09 09:45:46;;;;;;;10.68;6.30;;;6.20;99.90;;;;;;5105079;28;20079;-89
2023/03/09 09:48:33;;;;;;;15.07;7.05;;;6.30;99.90;;;;;;5114728;28;20052;-90
2023/03/09 09:51:40;;;;;;;11.65;7.00;;;6.20;99.90;;;;;;5114328;28;20522;-91
2023/03/09 09:54:52;;;;;;;10.48;6.68;;;6.40;99.90;;;;;;5114377;28;20541;-91
2023/03/09 09:58:27;;;;;;;10.07;5.78;;;6.50;99.90;;;;;;5114444;28;20510;-90
2023/03/09 10:01:40;;;;;;;12.93;7.15;;;6.50;99.90;;;;;;5057881;28;20051;-89
2023/03/09 10:04:53;;;;;;;10.27;5.82;;;6.60;99.90;;;;;;5114384;28;20051;-91
2023/03/09 10:07:40;;;;;;;11.65;6.00;;;6.80;99.90;;;;;;5117639;28;20123;-90
2023/03/09 10:10:29;;;;;;;12.52;6.93;;;7.10;99.90;;;;;;5113636;28;20093;-90
2023/03/09 10:13:26;;;;;;;11.85;7.20;;;7.30;99.90;;;;;;5099913;28;20058;-86
2023/03/09 10:16:23;;;;;;;9.30;5.75;;;7.60;99.90;;;;;;5113634;28;20113;-87
2023/03/09 10:19:16;;;;;;;10.05;6.13;;;7.90;99.90;;;;;;5094927;28;20569;-86
2023/03/09 10:22:06;;;;;;;10.32;5.68;;;8.30;99.90;;;;;;5094716;28;20051;-88
2023/03/09 10:24:55;;;;;;;12.40;5.80;;;8.60;99.90;;;;;;5102395;28;20048;-87
2023/03/09 10:28:02;;;;;;;9.80;6.10;;;8.70;99.90;;;;;;5090071;28;20491;-91
2023/03/09 10:31:26;;;;;;;11.65;6.70;;;9.10;99.90;;;;;;5103232;28;20056;-86
2023/03/09 10:34:23;;;;;;;11.32;6.30;;;9.00;99.90;;;;;;5093679;28;20054;-91
2023/03/09 10:37:17;;;;;;;10.30;5.95;;;8.70;99.90;;;;;;5112218;28;20515;-91
2023/03/09 10:40:14;;;;;;;12.43;6.75;;;8.70;99.90;;;;;;5112833;28;20052;-89
2023/03/09 10:43:00;;;;;;;9.82;5.97;;;8.80;99.90;;;;;;5119553;28;20044;-90
2023/03/09 10:45:46;;;;;;;11.10;6.45;;;8.70;99.90;;;;;;5081465;28;20357;-89
2023/03/09 10:48:32;;;;;;;12.35;6.57;;;8.60;99.90;;;;;;5099454;28;20483;-90
2023/03/09 10:51:58;;;;;;;10.05;6.50;;;8.70;99.90;;;;;;5113735;28;20426;-92
2023/03/09 10:54:44;;;;;;;10.30;6.68;;;8.90;99.90;;;;;;5003773;28;20064;-90
2023/03/09 10:57:30;;;;;;;12.73;6.95;;;8.60;99.80;;;;;;5086415;28;20047;-91
2023/03/09 11:00:16;;;;;;;11.70;7.95;;;8.70;99.90;;;;;;5080615;28;20048;-86
2023/03/09 11:03:03;;;;;;;10.80;7.10;;;9.00;99.90;;;;;;5103223;28;20483;-88
2023/03/09 11:05:49;;;;;;;10.48;6.13;;;9.00;99.20;;;;;;5084441;28;20083;-91
2023/03/09 11:08:36;;;;;;;12.07;7.05;;;8.80;99.80;;;;;;5092640;28;20044;-91
2023/03/09 11:11:26;;;;;;;12.32;6.22;;;8.70;99.30;;;;;;5090962;28;20131;-89
2023/03/09 11:14:25;;;;;;;8.68;5.65;;;8.70;99.60;;;;;;5074983;28;20499;-90
2023/03/09 11:17:40;;;;;;;11.63;6.93;;;8.80;99.60;;;;;;5093899;28;20588;-86
2023/03/09 11:20:39;;;;;;;9.10;6.07;;;9.00;99.60;;;;;;5095650;28;20796;-89
2023/03/09 11:23:47;;;;;;;10.40;6.63;;;8.90;99.50;;;;;;5082171;28;20055;-91
2023/03/09 11:27:02;;;;;;;10.63;6.32;;;8.80;98.80;;;;;;5089472;28;20056;-87
2023/03/09 11:29:57;;;;;;;10.63;6.50;;;8.80;99.40;;;;;;5089582;28;20755;-90
2023/03/09 11:32:43;;;;;;;9.88;6.43;;;8.60;99.60;;;;;;5097231;28;20529;-89
2023/03/09 11:35:29;;;;;;;11.13;6.82;;;8.50;99.80;;;;;;5092566;28;20063;-90
2023/03/09 11:38:16;;;;;;;12.60;6.63;;;8.40;99.70;;;;;;5085294;28;20052;-86
2023/03/09 11:41:24;;;;;;;11.90;6.82;;;8.50;99.90;;;;;;5101445;28;20052;-90
2023/03/09 11:44:22;;;;;;;10.52;7.25;;;8.30;99.50;;;;;;5088216;28;20051;-87
2023/03/09 11:47:25;;;;;;;18.67;7.00;;;8.30;99.90;;;;;;5100144;28;20060;-86
2023/03/09 11:50:19;;;;;;;9.57;6.30;;;8.30;99.70;;;;;;5092336;28;20566;-87
2023/03/09 11:53:22;;;;;;;10.38;6.60;;;8.20;99.90;;;;;;5068740;28;20193;-85
2023/03/09 11:56:13;;;;;;;9.95;6.10;;;7.90;99.60;;;;;;5096737;28;20044;-87
2023/03/09 11:59:15;;;;;;;10.00;6.32;;;7.90;99.90;;;;;;5121006;28;20051;-86
2023/03/09 12:02:37;;;;;;;10.30;6.15;;;7.90;99.90;;;;;;5114073;28;20139;-86
2023/03/09 12:05:30;;;;;;;10.48;5.90;;;7.80;99.90;;;;;;5110810;28;20407;-86
2023/03/09 12:08:49;;;;;;;9.88;6.47;;;7.70;99.90;;;;;;5094209;28;20051;-89
2023/03/09 12:11:42;;;;;;;9.70;5.43;;;7.60;99.90;;;;;;5068720;28;20053;-90
2023/03/09 12:14:38;;;;;;;14.20;6.13;;;7.60;99.90;;;;;;5094634;28;20074;-87
2023/03/09 12:17:31;;;;;;;;;;;7.60;99.90;;;;;;5111645;28;20147;-90
2023/03/09 12:20:24;;;;;;;9.93;6.10;;;7.90;99.90;;;;;;5081769;28;20349;-88
2023/03/09 12:23:34;;;;;;;10.10;5.60;;;8.00;99.90;;;;;;5109995;28;20051;-89
2023/03/09 12:26:30;;;;;;;9.75;5.85;;;8.10;99.90;;;;;;5109992;28;20051;-87
2023/03/09 12:29:22;;;;;;;9.18;5.82;;;8.00;99.90;;;;;;5100088;28;20051;-91
2023/03/09 12:32:26;;;;;;;9.82;6.15;;;8.20;99.90;;;;;;5096336;28;20061;-90
2023/03/09 12:35:21;;;;;;;10.27;6.18;;;8.10;99.90;;;;;;5092150;28;20043;-89
2023/03/09 12:38:22;;;;;;;8.35;5.60;;;8.10;99.90;;;;;;5113309;28;20054;-90
2023/03/09 12:41:26;;;;;;;9.57;5.45;;;8.10;99.90;;;;;;5086190;28;20044;-88
2023/03/09 12:44:11;;;;;;;9.73;4.75;;;8.00;99.90;;;;;;5113758;28;20047;-88
2023/03/09 12:47:00;;;;;;;12.20;5.50;;;8.10;99.90;;;;;;5112738;28;20052;-89
2023/03/09 12:49:49;;;;;;;7.63;4.05;;;8.20;99.90;;;;;;5102354;28;20129;-89
2023/03/09 12:53:05;;;;;;;9.50;5.90;;;8.30;99.50;;;;;;5079867;28;20070;-91
2023/03/09 12:56:03;;;;;;;10.20;5.65;;;8.40;99.40;;;;;;5112700;28;20048;-86
2023/03/09 12:58:53;;;;;;;12.02;5.72;;;8.40;99.60;;;;;;5120992;28;20094;-87
2023/03/09 13:01:39;;;;;;;9.77;5.78;;;8.40;99.80;;;;;;5111211;28;20061;-89
2023/03/09 13:04:26;;;;;;;9.95;5.18;;;8.50;99.90;;;;;;5111735;28;20055;-90
2023/03/09 13:07:17;;;;;;;9.10;5.28;;;8.70;99.70;;;;;;5112827;28;20039;-89
2023/03/09 13:10:04;;;;;;;7.82;5.30;;;8.70;99.40;;;;;;5122912;28;20047;-85
2023/03/09 13:12:55;;;;;;;8.52;5.18;;;8.60;99.50;;;;;;5108852;28;20062;-85
2023/03/09 13:15:41;;;;;;;19.98;6.60;;;8.50;99.50;;;;;;5110373;28;20140;-89
2023/03/09 13:18:27;;;;;;;25.98;6.40;;;8.30;99.80;;;;;;5133213;28;20047;-86
2023/03/09 13:21:43;;;;;;;9.48;5.40;;;8.20;99.90;;;;;;5120055;28;20508;-85
2023/03/09 13:24:36;;;;;;;10.45;5.78;;;7.90;99.90;;;;;;5120222;28;20053;-88
2023/03/09 13:27:28;;;;;;;8.40;5.20;;;7.80;99.90;;;;;;5125657;28;20071;-88
2023/03/09 13:30:26;;;;;;;10.30;5.55;;;7.80;99.90;;;;;;5086601;28;20109;-89
2023/03/09 13:33:23;;;;;;;7.93;5.32;;;7.60;99.90;;;;;;5101786;28;20126;-89
2023/03/09 13:36:23;;;;;;;10.48;6.45;;;7.60;99.90;;;;;;5116893;28;20112;-89
2023/03/09 13:39:20;;;;;;;7.60;4.60;;;7.60;99.90;;;;;;5090368;28;20071;-91
2023/03/09 13:42:06;;;;;;;7.88;4.90;;;7.60;99.90;;;;;;5126485;28;20097;-88
2023/03/09 13:44:53;;;;;;;9.80;5.88;;;7.50;99.90;;;;;;5095215;28;20052;-88
2023/03/09 13:47:39;;;;;;;7.82;4.82;;;7.50;99.90;;;;;;5113382;28;20305;-89
2023/03/09 13:50:32;;;;;;;11.57;5.80;;;7.40;99.90;;;;;;5112793;28;20048;-89
2023/03/09 13:53:23;;;;;;;8.45;4.45;;;7.40;99.90;;;;;;5113831;28;20588;-90
2023/03/09 13:56:15;;;;;;;10.15;4.70;;;7.30;99.90;;;;;;5117324;28;20047;-88
2023/03/09 13:59:03;;;;;;;17.92;6.22;;;7.20;99.90;;;;;;5114483;28;20184;-90
2023/03/09 14:01:49;;;;;;;9.40;4.53;;;7.10;99.90;;;;;;5111980;28;20055;-89
2023/03/09 14:05:03;;;;;;;8.32;4.72;;;7.00;99.90;;;;;;5113312;28;20075;-90
2023/03/09 14:08:03;;;;;;;8.45;4.90;;;7.00;99.90;;;;;;5119742;28;20044;-90
2023/03/09 14:10:51;;;;;;;11.65;5.53;;;6.90;99.90;;;;;;5107324;28;20509;-86
2023/03/09 14:13:43;;;;;;;9.65;5.20;;;6.80;99.90;;;;;;5112709;28;20483;-91
2023/03/09 14:16:29;;;;;;;8.60;4.38;;;6.80;99.90;;;;;;5112069;28;20052;-89
2023/03/09 14:19:24;;;;;;;8.48;4.90;;;6.70;99.90;;;;;;5113825;28;20107;-90
2023/03/09 14:22:21;;;;;;;8.05;4.85;;;6.70;99.90;;;;;;5112715;28;20412;-90
2023/03/09 14:25:27;;;;;;;7.63;4.78;;;6.70;99.90;;;;;;5095148;28;20051;-91
2023/03/09 14:28:23;;;;;;;;;;;6.70;99.90;;;;;;5118132;28;20051;-91
2023/03/09 14:31:29;;;;;;;7.28;3.70;;;6.60;99.90;;;;;;5098286;28;20371;-89
2023/03/09 14:34:15;;;;;;;7.18;3.92;;;6.50;99.90;;;;;;5101373;28;20055;-90
2023/03/09 14:37:03;;;;;;;7.65;4.03;;;6.40;99.90;;;;;;5097570;28;20090;-90
2023/03/09 14:39:49;;;;;;;6.90;3.30;;;6.40;99.90;;;;;;5093047;28;20055;-89
2023/03/09 14:42:35;;;;;;;8.80;4.53;;;6.30;99.90;;;;;;5115949;28;20043;-91